Time,TemperatureF,DewpointF,PressureIn,WindDirection,WindDirectionDegrees,WindSpeedMPH,WindSpeedGustMPH,Humidity,HourlyPrecipIn,Conditions,Clouds,dailyrainin,SoftwareType,DateUTC
2013-03-08 00:02:00,52.0,48.0,30.18,NNE,28,1.0,3.0,85,0.00,,,0.00,,2013-03-08 05:02:00,
2013-03-08 00:12:00,52.0,48.0,30.18,NNE,28,1.0,3.0,85,0.00,,,0.00,,2013-03-08 05:12:00,
2013-03-08 00:22:00,52.0,47.0,30.18,NE,40,0.0,0.0,84,0.00,,,0.00,,2013-03-08 05:22:00,
2013-03-08 00:32:00,51.0,47.0,30.18,NE,40,0.0,0.0,85,0.00,,,0.00,,2013-03-08 05:32:00,
2013-03-08 00:42:00,51.0,47.0,30.18,NE,40,0.0,0.0,85,0.00,,,0.00,,2013-03-08 05:42:00,
2013-03-08 00:52:00,51.0,47.0,30.18,NNE,27,0.0,2.0,87,0.00,,,0.00,,2013-03-08 05:52:00,
2013-03-08 01:01:00,51.0,47.0,30.18,NNE,17,0.0,4.0,87,0.00,,,0.00,,2013-03-08 06:01:00,
2013-03-08 01:11:00,51.0,47.0,30.18,NNE,17,0.0,4.0,87,0.00,,,0.00,,2013-03-08 06:11:00,
2013-03-08 01:22:00,51.0,47.0,30.17,NE,40,0.0,0.0,86,0.00,,,0.00,,2013-03-08 06:22:00,
2013-03-08 01:32:00,50.0,46.0,30.17,NE,40,0.0,0.0,87,0.00,,,0.00,,2013-03-08 06:32:00,
2013-03-08 01:42:00,50.0,46.0,30.17,NE,40,0.0,0.0,87,0.00,,,0.00,,2013-03-08 06:42:00,
2013-03-08 01:52:00,50.0,47.0,30.17,NNE,26,2.0,6.0,88,0.00,,,0.00,,2013-03-08 06:52:00,
2013-03-08 02:01:00,50.0,46.0,30.18,NNE,24,0.0,4.0,87,0.00,,,0.00,,2013-03-08 07:01:00,
2013-03-08 02:11:00,50.0,46.0,30.18,NNE,24,0.0,4.0,87,0.00,,,0.00,,2013-03-08 07:11:00,
2013-03-08 02:22:00,50.0,46.0,30.18,NNE,32,0.0,2.0,87,0.00,,,0.00,,2013-03-08 07:22:00,
2013-03-08 02:32:00,49.0,45.0,30.18,NE,36,1.0,6.0,87,0.00,,,0.00,,2013-03-08 07:32:00,
2013-03-08 02:42:00,49.0,45.0,30.18,NE,36,1.0,6.0,87,0.00,,,0.00,,2013-03-08 07:42:00,
2013-03-08 02:52:00,49.0,46.0,30.17,NE,40,2.0,5.0,88,0.00,,,0.00,,2013-03-08 07:52:00,
2013-03-08 03:01:00,48.0,45.0,30.17,NE,44,2.0,7.0,88,0.00,,,0.00,,2013-03-08 08:01:00,
2013-03-08 03:11:00,48.0,45.0,30.17,NE,44,2.0,7.0,88,0.00,,,0.00,,2013-03-08 08:11:00,
2013-03-08 03:22:00,48.0,45.0,30.16,NE,37,0.0,3.0,88,0.00,,,0.00,,2013-03-08 08:22:00,
2013-03-08 03:32:00,48.0,45.0,30.16,ENE,63,2.0,5.0,89,0.00,,,0.00,,2013-03-08 08:32:00,
2013-03-08 03:42:00,48.0,45.0,30.16,ENE,63,2.0,5.0,89,0.00,,,0.00,,2013-03-08 08:42:00,
2013-03-08 03:52:00,48.0,45.0,30.16,NNE,32,1.0,4.0,89,0.00,,,0.00,,2013-03-08 08:52:00,
2013-03-08 04:03:00,48.0,45.0,30.16,NE,44,0.0,3.0,88,0.00,,,0.00,,2013-03-08 09:03:00,
2013-03-08 04:11:00,48.0,45.0,30.16,NE,44,0.0,3.0,88,0.00,,,0.00,,2013-03-08 09:11:00,
2013-03-08 04:21:00,47.0,44.0,30.16,NE,36,0.0,0.0,89,0.00,,,0.00,,2013-03-08 09:21:00,
2013-03-08 04:32:00,47.0,44.0,30.16,NNE,28,0.0,4.0,89,0.00,,,0.00,,2013-03-08 09:32:00,
2013-03-08 04:42:00,47.0,44.0,30.16,NNE,28,0.0,4.0,89,0.00,,,0.00,,2013-03-08 09:42:00,
2013-03-08 04:52:00,47.0,44.0,30.16,NE,40,0.0,0.0,89,0.00,,,0.00,,2013-03-08 09:52:00,
2013-03-08 05:01:00,47.0,44.0,30.16,NNE,26,0.0,3.0,89,0.00,,,0.00,,2013-03-08 10:01:00,
2013-03-08 05:11:00,47.0,44.0,30.16,NNE,26,0.0,3.0,89,0.00,,,0.00,,2013-03-08 10:11:00,
2013-03-08 05:21:00,47.0,44.0,30.17,NE,38,0.0,0.0,89,0.00,,,0.00,,2013-03-08 10:21:00,
2013-03-08 05:32:00,47.0,44.0,30.17,NNE,24,0.0,3.0,89,0.00,,,0.00,,2013-03-08 10:32:00,
2013-03-08 05:42:00,47.0,44.0,30.17,NNE,24,0.0,3.0,89,0.00,,,0.00,,2013-03-08 10:42:00,
2013-03-08 05:52:00,47.0,44.0,30.17,NNE,22,2.0,6.0,89,0.00,,,0.00,,2013-03-08 10:52:00,
2013-03-08 06:01:00,47.0,44.0,30.17,North,9,0.0,5.0,89,0.00,,,0.00,,2013-03-08 11:01:00,
2013-03-08 06:11:00,47.0,44.0,30.17,North,9,0.0,5.0,89,0.00,,,0.00,,2013-03-08 11:11:00,
2013-03-08 06:21:00,47.0,44.0,30.17,NNE,26,0.0,4.0,89,0.00,,,0.00,,2013-03-08 11:21:00,
2013-03-08 06:32:00,47.0,44.0,30.17,North,11,0.0,3.0,89,0.00,,,0.00,,2013-03-08 11:32:00,
2013-03-08 06:42:00,47.0,44.0,30.17,North,11,0.0,3.0,89,0.00,,,0.00,,2013-03-08 11:42:00,
2013-03-08 06:52:00,47.0,44.0,30.17,North,10,1.0,3.0,89,0.00,,,0.00,,2013-03-08 11:52:00,
2013-03-08 07:02:00,47.0,44.0,30.17,NE,50,0.0,3.0,89,0.00,,,0.00,,2013-03-08 12:02:00,
2013-03-08 07:11:00,47.0,44.0,30.17,NE,50,0.0,3.0,89,0.00,,,0.00,,2013-03-08 12:11:00,
2013-03-08 07:22:00,47.0,44.0,30.18,North,11,0.0,0.0,89,0.00,,,0.00,,2013-03-08 12:22:00,
2013-03-08 07:32:00,47.0,44.0,30.19,NNE,30,1.0,5.0,89,0.00,,,0.00,,2013-03-08 12:32:00,
2013-03-08 07:43:00,47.0,44.0,30.19,NNE,30,1.0,5.0,89,0.00,,,0.00,,2013-03-08 12:43:00,
2013-03-08 07:53:00,48.0,45.0,30.19,ENE,77,0.0,3.0,88,0.00,,,0.00,,2013-03-08 12:53:00,
2013-03-08 08:01:00,49.0,45.0,30.19,NE,47,1.0,5.0,87,0.00,,,0.00,,2013-03-08 13:01:00,
2013-03-08 08:11:00,49.0,45.0,30.19,NE,47,1.0,5.0,87,0.00,,,0.00,,2013-03-08 13:11:00,
2013-03-08 08:22:00,50.0,46.0,30.20,NE,46,0.0,7.0,86,0.00,,,0.00,,2013-03-08 13:22:00,
2013-03-08 08:32:00,51.0,47.0,30.21,NNE,19,0.0,3.0,85,0.00,,,0.00,,2013-03-08 13:32:00,
2013-03-08 08:42:00,51.0,47.0,30.21,NNE,19,0.0,3.0,85,0.00,,,0.00,,2013-03-08 13:42:00,
2013-03-08 08:52:00,53.0,48.0,30.21,NE,39,0.0,3.0,82,0.00,,,0.00,,2013-03-08 13:52:00,
2013-03-08 09:03:00,54.0,48.0,30.22,NE,38,1.0,6.0,79,0.00,,,0.00,,2013-03-08 14:03:00,
2013-03-08 09:12:00,54.0,48.0,30.22,NE,38,1.0,6.0,79,0.00,,,0.00,,2013-03-08 14:12:00,
2013-03-08 09:22:00,55.0,47.0,30.22,ENE,67,1.0,5.0,75,0.00,,,0.00,,2013-03-08 14:22:00,
2013-03-08 09:32:00,57.0,49.0,30.22,NE,34,0.0,1.0,75,0.00,,,0.00,,2013-03-08 14:32:00,
2013-03-08 09:42:00,57.0,49.0,30.22,NE,34,0.0,1.0,75,0.00,,,0.00,,2013-03-08 14:42:00,
2013-03-08 09:53:00,59.0,48.0,30.21,NNE,20,2.0,5.0,68,0.00,,,0.00,,2013-03-08 14:53:00,
2013-03-08 10:03:00,60.0,47.0,30.21,North,5,2.0,9.0,61,0.00,,,0.00,,2013-03-08 15:03:00,
2013-03-08 10:12:00,63.0,48.0,30.21,NNE,32,1.0,5.0,59,0.00,,,0.00,,2013-03-08 15:12:00,
2013-03-08 10:22:00,63.0,48.0,30.21,NNE,32,1.0,5.0,59,0.00,,,0.00,,2013-03-08 15:22:00,
2013-03-08 10:32:00,64.0,46.0,30.21,NNE,32,3.0,8.0,52,0.00,,,0.00,,2013-03-08 15:32:00,
2013-03-08 10:42:00,64.0,46.0,30.21,NNE,32,3.0,8.0,52,0.00,,,0.00,,2013-03-08 15:42:00,
2013-03-08 10:53:00,66.0,44.0,30.21,NE,44,3.0,7.0,45,0.00,,,0.00,,2013-03-08 15:53:00,
2013-03-08 11:01:00,67.0,45.0,30.20,NNE,26,1.0,7.0,45,0.00,,,0.00,,2013-03-08 16:01:00,
2013-03-08 11:11:00,67.0,45.0,30.20,NNE,26,1.0,7.0,45,0.00,,,0.00,,2013-03-08 16:11:00,
2013-03-08 11:22:00,68.0,46.0,30.20,ESE,123,0.0,7.0,45,0.00,,,0.00,,2013-03-08 16:22:00,
2013-03-08 11:32:00,68.0,43.0,30.20,ESE,113,0.0,7.0,41,0.00,,,0.00,,2013-03-08 16:32:00,
2013-03-08 11:42:00,68.0,43.0,30.20,ESE,113,0.0,7.0,41,0.00,,,0.00,,2013-03-08 16:42:00,
2013-03-08 11:52:00,68.0,43.0,30.20,ESE,113,0.0,7.0,41,0.00,,,0.00,,2013-03-08 16:52:00,
2013-03-08 12:03:00,68.0,43.0,30.20,ESE,113,0.0,7.0,41,0.00,,,0.00,,2013-03-08 17:03:00,
2013-03-08 12:11:00,68.0,43.0,30.20,ESE,113,0.0,7.0,41,0.00,,,0.00,,2013-03-08 17:11:00,
2013-03-08 15:53:00,70.0,50.0,30.11,WNW,283,4.0,12.0,50,0.00,,,0.00,,2013-03-08 20:53:00,
2013-03-08 16:02:00,68.0,51.0,30.11,West,259,5.0,11.0,54,0.00,,,0.00,,2013-03-08 21:02:00,
2013-03-08 16:11:00,68.0,51.0,30.11,West,259,5.0,11.0,54,0.00,,,0.00,,2013-03-08 21:11:00,
2013-03-08 16:22:00,68.0,51.0,30.11,WSW,237,4.0,10.0,55,0.00,,,0.00,,2013-03-08 21:22:00,
2013-03-08 16:32:00,68.0,50.0,30.11,WNW,296,4.0,9.0,52,0.00,,,0.00,,2013-03-08 21:32:00,
2013-03-08 16:42:00,68.0,50.0,30.11,WNW,296,4.0,9.0,52,0.00,,,0.00,,2013-03-08 21:42:00,
2013-03-08 16:52:00,68.0,50.0,30.11,WSW,250,5.0,10.0,52,0.00,,,0.00,,2013-03-08 21:52:00,
2013-03-08 17:01:00,68.0,52.0,30.11,WSW,246,6.0,13.0,56,0.00,,,0.00,,2013-03-08 22:01:00,
2013-03-08 17:11:00,68.0,52.0,30.11,WSW,246,6.0,13.0,56,0.00,,,0.00,,2013-03-08 22:11:00,
2013-03-08 17:22:00,66.0,52.0,30.11,West,271,5.0,10.0,61,0.00,,,0.00,,2013-03-08 22:22:00,
2013-03-08 17:32:00,66.0,50.0,30.11,West,276,4.0,9.0,57,0.00,,,0.00,,2013-03-08 22:32:00,
2013-03-08 17:42:00,66.0,50.0,30.11,West,276,4.0,9.0,57,0.00,,,0.00,,2013-03-08 22:42:00,
2013-03-08 17:53:00,66.0,51.0,30.11,West,274,3.0,10.0,59,0.00,,,0.00,,2013-03-08 22:53:00,
2013-03-08 18:02:00,65.0,51.0,30.12,West,261,6.0,10.0,61,0.00,,,0.00,,2013-03-08 23:02:00,
2013-03-08 18:12:00,65.0,51.0,30.12,West,261,6.0,10.0,61,0.00,,,0.00,,2013-03-08 23:12:00,
2013-03-08 18:22:00,64.0,51.0,30.12,West,263,4.0,10.0,63,0.00,,,0.00,,2013-03-08 23:22:00,
2013-03-08 18:32:00,64.0,52.0,30.13,West,276,2.0,9.0,66,0.00,,,0.00,,2013-03-08 23:32:00,
2013-03-08 18:42:00,64.0,52.0,30.13,West,276,2.0,9.0,66,0.00,,,0.00,,2013-03-08 23:42:00,
2013-03-08 18:53:00,63.0,53.0,30.13,WNW,284,3.0,8.0,69,0.00,,,0.00,,2013-03-08 23:53:00,
2013-03-08 19:02:00,62.0,52.0,30.13,WSW,258,3.0,8.0,71,0.00,,,0.00,,2013-03-09 00:02:00,
2013-03-08 19:12:00,62.0,52.0,30.13,WSW,258,3.0,8.0,71,0.00,,,0.00,,2013-03-09 00:12:00,
2013-03-08 19:22:00,62.0,53.0,30.13,NW,304,4.0,8.0,72,0.00,,,0.00,,2013-03-09 00:22:00,
2013-03-08 19:32:00,62.0,53.0,30.14,NW,317,4.0,10.0,73,0.00,,,0.00,,2013-03-09 00:32:00,
2013-03-08 19:42:00,62.0,53.0,30.14,NW,317,4.0,10.0,73,0.00,,,0.00,,2013-03-09 00:42:00,
2013-03-08 19:52:00,61.0,53.0,30.14,NW,325,0.0,8.0,74,0.00,,,0.00,,2013-03-09 00:52:00,
2013-03-08 20:02:00,61.0,53.0,30.14,NW,304,2.0,7.0,74,0.00,,,0.00,,2013-03-09 01:02:00,
2013-03-08 20:12:00,61.0,53.0,30.14,NW,309,4.0,7.0,74,0.00,,,0.00,,2013-03-09 01:12:00,
2013-03-08 20:22:00,61.0,53.0,30.14,NW,309,4.0,7.0,74,0.00,,,0.00,,2013-03-09 01:22:00,
2013-03-08 20:32:00,60.0,51.0,30.15,NW,312,0.0,6.0,73,0.00,,,0.00,,2013-03-09 01:32:00,
2013-03-08 20:42:00,60.0,51.0,30.15,NW,312,0.0,6.0,73,0.00,,,0.00,,2013-03-09 01:42:00,
2013-03-08 20:52:00,60.0,51.0,30.15,NNW,330,1.0,7.0,71,0.00,,,0.00,,2013-03-09 01:52:00,
2013-03-08 21:01:00,59.0,49.0,30.16,NNW,330,4.0,6.0,70,0.00,,,0.00,,2013-03-09 02:01:00,
2013-03-08 21:11:00,59.0,49.0,30.16,NNW,330,4.0,6.0,70,0.00,,,0.00,,2013-03-09 02:11:00,
2013-03-08 21:21:00,59.0,49.0,30.16,NW,326,0.0,5.0,70,0.00,,,0.00,,2013-03-09 02:21:00,
2013-03-08 21:31:00,59.0,49.0,30.16,North,350,0.0,2.0,70,0.00,,,0.00,,2013-03-09 02:31:00,
2013-03-08 21:41:00,58.0,49.0,30.16,NE,34,0.0,3.0,73,0.00,,,0.00,,2013-03-09 02:41:00,
2013-03-08 21:51:00,58.0,49.0,30.16,NE,34,0.0,3.0,73,0.00,,,0.00,,2013-03-09 02:51:00,
2013-03-08 22:01:00,58.0,50.0,30.16,NE,36,3.0,5.0,75,0.00,,,0.00,,2013-03-09 03:01:00,
2013-03-08 22:11:00,58.0,50.0,30.16,NE,36,3.0,5.0,75,0.00,,,0.00,,2013-03-09 03:11:00,
2013-03-08 22:21:00,58.0,50.0,30.16,NNE,24,0.0,4.0,76,0.00,,,0.00,,2013-03-09 03:21:00,
2013-03-08 22:31:00,58.0,51.0,30.17,NE,42,0.0,3.0,77,0.00,,,0.00,,2013-03-09 03:31:00,
2013-03-08 22:41:00,58.0,51.0,30.17,NE,42,0.0,3.0,77,0.00,,,0.00,,2013-03-09 03:41:00,
2013-03-08 22:52:00,57.0,50.0,30.16,NNE,15,0.0,4.0,78,0.00,,,0.00,,2013-03-09 03:52:00,
2013-03-08 23:01:00,57.0,51.0,30.18,NE,36,1.0,6.0,79,0.00,,,0.00,,2013-03-09 04:01:00,
2013-03-08 23:11:00,57.0,51.0,30.18,NE,36,1.0,6.0,79,0.00,,,0.00,,2013-03-09 04:11:00,
2013-03-08 23:22:00,56.0,49.0,30.17,NNW,344,2.0,6.0,78,0.00,,,0.00,,2013-03-09 04:22:00,
2013-03-08 23:32:00,56.0,47.0,30.17,North,11,2.0,7.0,73,0.00,,,0.00,,2013-03-09 04:32:00,
2013-03-08 23:42:00,56.0,47.0,30.17,North,11,2.0,7.0,73,0.00,,,0.00,,2013-03-09 04:42:00,
2013-03-08 23:52:00,56.0,47.0,30.16,North,9,4.0,8.0,71,0.00,,,0.00,,2013-03-09 04:52:00,